sensor_id;sensor_type;location;lat;lon;timestamp;P1;durP1;ratioP1;P2;durP2;ratioP2
46889;SDS011;32625;51.080;16.970;2024-03-02T00:00:50;116.15;;;80.90;;
46889;SDS011;32625;51.080;16.970;2024-03-02T00:03:18;114.68;;;79.90;;
46889;SDS011;32625;51.080;16.970;2024-03-02T00:05:50;116.13;;;79.10;;
46889;SDS011;32625;51.080;16.970;2024-03-02T00:08:23;117.50;;;81.82;;
46889;SDS011;32625;51.080;16.970;2024-03-02T00:10:56;114.38;;;79.22;;
46889;SDS011;32625;51.080;16.970;2024-03-02T00:13:25;119.95;;;80.72;;
46889;SDS011;32625;51.080;16.970;2024-03-02T00:15:53;120.70;;;81.60;;
46889;SDS011;32625;51.080;16.970;2024-03-02T00:21:01;115.82;;;79.55;;
46889;SDS011;32625;51.080;16.970;2024-03-02T00:23:30;111.85;;;76.88;;
46889;SDS011;32625;51.080;16.970;2024-03-02T00:26:00;111.82;;;78.40;;
46889;SDS011;32625;51.080;16.970;2024-03-02T00:28:29;111.75;;;78.60;;
46889;SDS011;32625;51.080;16.970;2024-03-02T00:33:34;111.13;;;77.32;;
46889;SDS011;32625;51.080;16.970;2024-03-02T00:36:03;116.28;;;78.32;;
46889;SDS011;32625;51.080;16.970;2024-03-02T00:38:31;117.72;;;80.82;;
46889;SDS011;32625;51.080;16.970;2024-03-02T00:41:06;118.85;;;81.20;;
46889;SDS011;32625;51.080;16.970;2024-03-02T00:46:17;118.85;;;80.72;;
46889;SDS011;32625;51.080;16.970;2024-03-02T00:49:32;111.55;;;80.25;;
46889;SDS011;32625;51.080;16.970;2024-03-02T00:51:48;123.45;;;81.72;;
46889;SDS011;32625;51.080;16.970;2024-03-02T00:54:21;117.97;;;82.65;;
46889;SDS011;32625;51.080;16.970;2024-03-02T00:56:51;124.90;;;82.22;;
46889;SDS011;32625;51.080;16.970;2024-03-02T00:59:24;120.35;;;83.20;;
46889;SDS011;32625;51.080;16.970;2024-03-02T01:01:51;119.05;;;82.25;;
46889;SDS011;32625;51.080;16.970;2024-03-02T01:04:19;127.13;;;83.97;;
46889;SDS011;32625;51.080;16.970;2024-03-02T01:06:46;131.52;;;89.60;;
46889;SDS011;32625;51.080;16.970;2024-03-02T01:09:13;125.32;;;87.03;;
46889;SDS011;32625;51.080;16.970;2024-03-02T01:11:40;124.93;;;84.97;;
46889;SDS011;32625;51.080;16.970;2024-03-02T01:14:08;124.43;;;85.07;;
46889;SDS011;32625;51.080;16.970;2024-03-02T01:16:35;121.03;;;84.82;;
46889;SDS011;32625;51.080;16.970;2024-03-02T01:19:02;118.93;;;81.10;;
46889;SDS011;32625;51.080;16.970;2024-03-02T01:21:30;133.68;;;85.30;;
46889;SDS011;32625;51.080;16.970;2024-03-02T01:23:58;127.38;;;85.10;;
46889;SDS011;32625;51.080;16.970;2024-03-02T01:26:25;125.63;;;84.05;;
46889;SDS011;32625;51.080;16.970;2024-03-02T01:28:52;120.95;;;85.07;;
46889;SDS011;32625;51.080;16.970;2024-03-02T01:31:19;118.28;;;83.18;;
46889;SDS011;32625;51.080;16.970;2024-03-02T01:33:46;125.97;;;83.38;;
46889;SDS011;32625;51.080;16.970;2024-03-02T01:36:13;117.63;;;80.63;;
46889;SDS011;32625;51.080;16.970;2024-03-02T01:38:40;127.70;;;86.30;;
46889;SDS011;32625;51.080;16.970;2024-03-02T01:41:08;119.68;;;83.30;;
46889;SDS011;32625;51.080;16.970;2024-03-02T01:43:35;114.05;;;82.25;;
46889;SDS011;32625;51.080;16.970;2024-03-02T01:46:05;114.88;;;81.70;;
46889;SDS011;32625;51.080;16.970;2024-03-02T01:48:32;128.82;;;85.30;;
46889;SDS011;32625;51.080;16.970;2024-03-02T01:51:00;111.35;;;79.22;;
46889;SDS011;32625;51.080;16.970;2024-03-02T01:53:27;131.30;;;85.35;;
46889;SDS011;32625;51.080;16.970;2024-03-02T01:55:55;117.47;;;81.03;;
46889;SDS011;32625;51.080;16.970;2024-03-02T01:58:22;119.18;;;80.95;;
46889;SDS011;32625;51.080;16.970;2024-03-02T02:00:49;125.78;;;84.50;;
46889;SDS011;32625;51.080;16.970;2024-03-02T02:03:17;116.63;;;80.47;;
46889;SDS011;32625;51.080;16.970;2024-03-02T02:05:44;114.38;;;79.97;;
46889;SDS011;32625;51.080;16.970;2024-03-02T02:08:12;109.47;;;74.90;;
46889;SDS011;32625;51.080;16.970;2024-03-02T02:10:39;113.07;;;78.47;;
46889;SDS011;32625;51.080;16.970;2024-03-02T02:13:06;127.68;;;84.00;;
46889;SDS011;32625;51.080;16.970;2024-03-02T02:15:35;115.85;;;82.28;;
46889;SDS011;32625;51.080;16.970;2024-03-02T02:18:03;115.97;;;79.82;;
46889;SDS011;32625;51.080;16.970;2024-03-02T02:20:30;122.78;;;83.95;;
46889;SDS011;32625;51.080;16.970;2024-03-02T02:25:26;113.55;;;77.65;;
46889;SDS011;32625;51.080;16.970;2024-03-02T02:27:54;120.85;;;83.28;;
46889;SDS011;32625;51.080;16.970;2024-03-02T02:30:24;114.35;;;80.35;;
46889;SDS011;32625;51.080;16.970;2024-03-02T02:32:52;124.88;;;80.63;;
46889;SDS011;32625;51.080;16.970;2024-03-02T02:35:20;118.70;;;82.20;;
46889;SDS011;32625;51.080;16.970;2024-03-02T02:37:47;122.70;;;80.05;;
46889;SDS011;32625;51.080;16.970;2024-03-02T02:40:16;109.15;;;76.80;;
46889;SDS011;32625;51.080;16.970;2024-03-02T02:42:45;113.18;;;78.43;;
46889;SDS011;32625;51.080;16.970;2024-03-02T02:45:13;107.90;;;76.47;;
46889;SDS011;32625;51.080;16.970;2024-03-02T02:47:42;114.38;;;77.57;;
46889;SDS011;32625;51.080;16.970;2024-03-02T02:50:10;120.88;;;78.88;;
46889;SDS011;32625;51.080;16.970;2024-03-02T02:52:39;114.55;;;77.30;;
46889;SDS011;32625;51.080;16.970;2024-03-02T02:55:08;105.45;;;73.78;;
46889;SDS011;32625;51.080;16.970;2024-03-02T02:57:40;112.82;;;77.72;;
46889;SDS011;32625;51.080;16.970;2024-03-02T03:00:10;106.50;;;72.68;;
46889;SDS011;32625;51.080;16.970;2024-03-02T03:02:45;122.78;;;79.80;;
46889;SDS011;32625;51.080;16.970;2024-03-02T03:05:15;111.75;;;72.25;;
46889;SDS011;32625;51.080;16.970;2024-03-02T03:07:42;111.85;;;75.90;;
46889;SDS011;32625;51.080;16.970;2024-03-02T03:10:17;112.00;;;76.53;;
46889;SDS011;32625;51.080;16.970;2024-03-02T03:12:44;113.15;;;76.30;;
46889;SDS011;32625;51.080;16.970;2024-03-02T03:15:12;115.53;;;78.30;;
46889;SDS011;32625;51.080;16.970;2024-03-02T03:17:39;112.80;;;77.05;;
46889;SDS011;32625;51.080;16.970;2024-03-02T03:20:07;117.30;;;79.57;;
46889;SDS011;32625;51.080;16.970;2024-03-02T03:22:37;114.15;;;77.65;;
46889;SDS011;32625;51.080;16.970;2024-03-02T03:25:05;124.32;;;79.20;;
46889;SDS011;32625;51.080;16.970;2024-03-02T03:27:35;113.60;;;76.28;;
46889;SDS011;32625;51.080;16.970;2024-03-02T03:30:03;122.70;;;81.72;;
46889;SDS011;32625;51.080;16.970;2024-03-02T03:32:30;121.38;;;82.75;;
46889;SDS011;32625;51.080;16.970;2024-03-02T03:34:57;122.88;;;82.35;;
46889;SDS011;32625;51.080;16.970;2024-03-02T03:37:25;127.95;;;80.32;;
46889;SDS011;32625;51.080;16.970;2024-03-02T03:39:59;117.20;;;76.93;;
46889;SDS011;32625;51.080;16.970;2024-03-02T03:42:27;118.68;;;79.57;;
46889;SDS011;32625;51.080;16.970;2024-03-02T03:44:55;122.32;;;80.63;;
46889;SDS011;32625;51.080;16.970;2024-03-02T03:47:22;122.95;;;79.55;;
46889;SDS011;32625;51.080;16.970;2024-03-02T03:49:49;127.05;;;81.63;;
46889;SDS011;32625;51.080;16.970;2024-03-02T03:52:16;116.32;;;76.38;;
46889;SDS011;32625;51.080;16.970;2024-03-02T03:54:43;113.32;;;76.95;;
46889;SDS011;32625;51.080;16.970;2024-03-02T03:57:12;114.78;;;75.78;;
46889;SDS011;32625;51.080;16.970;2024-03-02T03:59:39;115.82;;;76.72;;
46889;SDS011;32625;51.080;16.970;2024-03-02T04:02:06;114.82;;;76.95;;
46889;SDS011;32625;51.080;16.970;2024-03-02T04:04:35;118.78;;;75.55;;
46889;SDS011;32625;51.080;16.970;2024-03-02T04:07:02;119.05;;;77.93;;
46889;SDS011;32625;51.080;16.970;2024-03-02T04:09:29;113.47;;;77.00;;
46889;SDS011;32625;51.080;16.970;2024-03-02T04:11:56;108.38;;;74.30;;
46889;SDS011;32625;51.080;16.970;2024-03-02T04:14:23;116.18;;;75.97;;
46889;SDS011;32625;51.080;16.970;2024-03-02T04:16:51;111.82;;;75.88;;
46889;SDS011;32625;51.080;16.970;2024-03-02T04:19:18;113.78;;;76.43;;
46889;SDS011;32625;51.080;16.970;2024-03-02T04:21:45;115.55;;;73.97;;
46889;SDS011;32625;51.080;16.970;2024-03-02T04:24:12;110.53;;;73.82;;
46889;SDS011;32625;51.080;16.970;2024-03-02T04:26:39;114.68;;;77.10;;
46889;SDS011;32625;51.080;16.970;2024-03-02T04:29:06;105.80;;;72.03;;
46889;SDS011;32625;51.080;16.970;2024-03-02T04:31:34;110.05;;;72.95;;
46889;SDS011;32625;51.080;16.970;2024-03-02T04:34:01;111.03;;;73.80;;
46889;SDS011;32625;51.080;16.970;2024-03-02T04:36:30;117.38;;;75.35;;
46889;SDS011;32625;51.080;16.970;2024-03-02T04:38:57;109.43;;;72.78;;
46889;SDS011;32625;51.080;16.970;2024-03-02T04:41:24;107.18;;;72.50;;
46889;SDS011;32625;51.080;16.970;2024-03-02T04:43:51;111.60;;;73.47;;
46889;SDS011;32625;51.080;16.970;2024-03-02T04:46:18;105.05;;;71.00;;
46889;SDS011;32625;51.080;16.970;2024-03-02T04:48:45;113.55;;;73.50;;
46889;SDS011;32625;51.080;16.970;2024-03-02T04:51:13;101.43;;;67.05;;
46889;SDS011;32625;51.080;16.970;2024-03-02T04:53:40;106.13;;;70.18;;
46889;SDS011;32625;51.080;16.970;2024-03-02T04:56:07;100.57;;;68.88;;
46889;SDS011;32625;51.080;16.970;2024-03-02T04:58:37;100.97;;;66.35;;
46889;SDS011;32625;51.080;16.970;2024-03-02T05:01:04;99.13;;;67.22;;
46889;SDS011;32625;51.080;16.970;2024-03-02T05:03:31;98.43;;;66.93;;
46889;SDS011;32625;51.080;16.970;2024-03-02T05:06:01;106.80;;;68.97;;
46889;SDS011;32625;51.080;16.970;2024-03-02T05:08:28;94.55;;;65.30;;
46889;SDS011;32625;51.080;16.970;2024-03-02T05:10:56;95.00;;;64.50;;
46889;SDS011;32625;51.080;16.970;2024-03-02T05:13:43;98.22;;;66.07;;
46889;SDS011;32625;51.080;16.970;2024-03-02T05:16:10;98.97;;;66.93;;
46889;SDS011;32625;51.080;16.970;2024-03-02T05:18:38;94.72;;;61.63;;
46889;SDS011;32625;51.080;16.970;2024-03-02T05:21:05;99.82;;;67.75;;
46889;SDS011;32625;51.080;16.970;2024-03-02T05:23:32;94.13;;;64.60;;
46889;SDS011;32625;51.080;16.970;2024-03-02T05:25:59;94.45;;;63.30;;
46889;SDS011;32625;51.080;16.970;2024-03-02T05:28:26;100.88;;;66.03;;
46889;SDS011;32625;51.080;16.970;2024-03-02T05:30:54;94.95;;;64.15;;
46889;SDS011;32625;51.080;16.970;2024-03-02T05:33:21;95.05;;;65.95;;
46889;SDS011;32625;51.080;16.970;2024-03-02T05:35:49;95.55;;;66.28;;
46889;SDS011;32625;51.080;16.970;2024-03-02T05:38:16;91.15;;;64.05;;
46889;SDS011;32625;51.080;16.970;2024-03-02T05:40:43;90.85;;;62.35;;
46889;SDS011;32625;51.080;16.970;2024-03-02T05:43:10;95.13;;;63.22;;
46889;SDS011;32625;51.080;16.970;2024-03-02T05:45:38;91.95;;;60.88;;
46889;SDS011;32625;51.080;16.970;2024-03-02T05:48:06;98.22;;;63.42;;
46889;SDS011;32625;51.080;16.970;2024-03-02T05:50:34;97.45;;;64.70;;
46889;SDS011;32625;51.080;16.970;2024-03-02T05:53:01;100.32;;;65.75;;
46889;SDS011;32625;51.080;16.970;2024-03-02T05:55:29;102.03;;;65.60;;
46889;SDS011;32625;51.080;16.970;2024-03-02T05:57:57;101.22;;;66.97;;
46889;SDS011;32625;51.080;16.970;2024-03-02T06:00:25;103.88;;;65.10;;
46889;SDS011;32625;51.080;16.970;2024-03-02T06:02:52;92.28;;;63.83;;
46889;SDS011;32625;51.080;16.970;2024-03-02T06:05:19;103.65;;;65.93;;
46889;SDS011;32625;51.080;16.970;2024-03-02T06:07:46;98.85;;;65.22;;
46889;SDS011;32625;51.080;16.970;2024-03-02T06:10:14;101.97;;;64.28;;
46889;SDS011;32625;51.080;16.970;2024-03-02T06:12:41;106.07;;;67.53;;
46889;SDS011;32625;51.080;16.970;2024-03-02T06:15:09;101.25;;;65.50;;
46889;SDS011;32625;51.080;16.970;2024-03-02T06:17:37;90.90;;;64.53;;
46889;SDS011;32625;51.080;16.970;2024-03-02T06:20:05;97.55;;;65.75;;
46889;SDS011;32625;51.080;16.970;2024-03-02T06:22:34;98.25;;;63.88;;
46889;SDS011;32625;51.080;16.970;2024-03-02T06:25:02;100.22;;;65.35;;
46889;SDS011;32625;51.080;16.970;2024-03-02T06:27:29;90.60;;;62.88;;
46889;SDS011;32625;51.080;16.970;2024-03-02T06:29:56;103.28;;;65.70;;
46889;SDS011;32625;51.080;16.970;2024-03-02T06:32:23;92.82;;;61.75;;
46889;SDS011;32625;51.080;16.970;2024-03-02T06:34:51;98.13;;;65.93;;
46889;SDS011;32625;51.080;16.970;2024-03-02T06:37:18;95.75;;;65.50;;
46889;SDS011;32625;51.080;16.970;2024-03-02T06:39:46;99.53;;;65.38;;
46889;SDS011;32625;51.080;16.970;2024-03-02T06:42:13;98.28;;;64.75;;
46889;SDS011;32625;51.080;16.970;2024-03-02T06:44:40;94.45;;;66.07;;
46889;SDS011;32625;51.080;16.970;2024-03-02T06:47:07;94.15;;;63.08;;
46889;SDS011;32625;51.080;16.970;2024-03-02T06:49:34;98.50;;;65.78;;
46889;SDS011;32625;51.080;16.970;2024-03-02T06:52:02;90.82;;;64.05;;
46889;SDS011;32625;51.080;16.970;2024-03-02T06:54:29;104.05;;;66.63;;
46889;SDS011;32625;51.080;16.970;2024-03-02T06:56:56;101.70;;;68.05;;
46889;SDS011;32625;51.080;16.970;2024-03-02T06:59:23;99.00;;;66.53;;
46889;SDS011;32625;51.080;16.970;2024-03-02T07:01:51;98.70;;;65.35;;
46889;SDS011;32625;51.080;16.970;2024-03-02T07:04:18;105.15;;;68.50;;
46889;SDS011;32625;51.080;16.970;2024-03-02T07:06:45;97.85;;;66.90;;
46889;SDS011;32625;51.080;16.970;2024-03-02T07:09:12;98.35;;;67.07;;
46889;SDS011;32625;51.080;16.970;2024-03-02T07:11:39;105.97;;;66.32;;
46889;SDS011;32625;51.080;16.970;2024-03-02T07:14:07;94.32;;;65.38;;
46889;SDS011;32625;51.080;16.970;2024-03-02T07:16:34;93.28;;;65.35;;
46889;SDS011;32625;51.080;16.970;2024-03-02T07:19:05;95.50;;;63.33;;
46889;SDS011;32625;51.080;16.970;2024-03-02T07:21:32;97.03;;;65.45;;
46889;SDS011;32625;51.080;16.970;2024-03-02T07:24:00;98.38;;;65.15;;
46889;SDS011;32625;51.080;16.970;2024-03-02T07:26:30;98.60;;;65.07;;
46889;SDS011;32625;51.080;16.970;2024-03-02T07:29:00;95.85;;;62.90;;
46889;SDS011;32625;51.080;16.970;2024-03-02T07:31:28;84.32;;;60.92;;
46889;SDS011;32625;51.080;16.970;2024-03-02T07:33:55;93.05;;;62.88;;
46889;SDS011;32625;51.080;16.970;2024-03-02T07:36:22;88.13;;;60.60;;
46889;SDS011;32625;51.080;16.970;2024-03-02T07:38:49;86.15;;;61.95;;
46889;SDS011;32625;51.080;16.970;2024-03-02T07:41:17;89.70;;;61.47;;
46889;SDS011;32625;51.080;16.970;2024-03-02T07:43:44;91.45;;;62.17;;
46889;SDS011;32625;51.080;16.970;2024-03-02T07:46:11;88.60;;;61.03;;
46889;SDS011;32625;51.080;16.970;2024-03-02T07:48:39;88.35;;;58.63;;
46889;SDS011;32625;51.080;16.970;2024-03-02T07:51:06;86.07;;;60.15;;
46889;SDS011;32625;51.080;16.970;2024-03-02T07:53:33;89.82;;;61.38;;
46889;SDS011;32625;51.080;16.970;2024-03-02T07:56:00;83.15;;;60.25;;
46889;SDS011;32625;51.080;16.970;2024-03-02T07:58:29;83.40;;;60.78;;
46889;SDS011;32625;51.080;16.970;2024-03-02T08:00:57;81.28;;;58.22;;
46889;SDS011;32625;51.080;16.970;2024-03-02T08:03:28;82.57;;;60.03;;
46889;SDS011;32625;51.080;16.970;2024-03-02T08:05:55;85.45;;;60.60;;
46889;SDS011;32625;51.080;16.970;2024-03-02T08:08:22;86.82;;;62.08;;
46889;SDS011;32625;51.080;16.970;2024-03-02T08:10:49;79.65;;;57.28;;
46889;SDS011;32625;51.080;16.970;2024-03-02T08:13:17;85.25;;;59.28;;
46889;SDS011;32625;51.080;16.970;2024-03-02T08:15:44;83.05;;;60.50;;
46889;SDS011;32625;51.080;16.970;2024-03-02T08:18:11;84.18;;;58.75;;
46889;SDS011;32625;51.080;16.970;2024-03-02T08:20:38;79.22;;;57.70;;
46889;SDS011;32625;51.080;16.970;2024-03-02T08:23:07;78.40;;;56.58;;
46889;SDS011;32625;51.080;16.970;2024-03-02T08:25:34;80.20;;;58.40;;
46889;SDS011;32625;51.080;16.970;2024-03-02T08:28:01;81.03;;;57.92;;
46889;SDS011;32625;51.080;16.970;2024-03-02T08:30:29;78.82;;;58.00;;
46889;SDS011;32625;51.080;16.970;2024-03-02T08:32:56;77.35;;;58.20;;
46889;SDS011;32625;51.080;16.970;2024-03-02T08:35:23;79.15;;;57.67;;
46889;SDS011;32625;51.080;16.970;2024-03-02T08:37:50;75.03;;;53.85;;
46889;SDS011;32625;51.080;16.970;2024-03-02T08:40:17;76.43;;;54.17;;
46889;SDS011;32625;51.080;16.970;2024-03-02T08:42:45;74.90;;;52.95;;
46889;SDS011;32625;51.080;16.970;2024-03-02T08:45:13;78.25;;;54.13;;
46889;SDS011;32625;51.080;16.970;2024-03-02T08:47:41;74.95;;;53.53;;
46889;SDS011;32625;51.080;16.970;2024-03-02T08:50:08;81.45;;;55.35;;
46889;SDS011;32625;51.080;16.970;2024-03-02T08:52:35;77.20;;;55.22;;
46889;SDS011;32625;51.080;16.970;2024-03-02T08:55:02;72.90;;;54.15;;
46889;SDS011;32625;51.080;16.970;2024-03-02T08:57:30;73.00;;;53.60;;
46889;SDS011;32625;51.080;16.970;2024-03-02T08:59:58;68.13;;;50.50;;
46889;SDS011;32625;51.080;16.970;2024-03-02T09:02:26;69.93;;;52.50;;
46889;SDS011;32625;51.080;16.970;2024-03-02T09:04:54;71.43;;;51.35;;
46889;SDS011;32625;51.080;16.970;2024-03-02T09:07:21;70.90;;;52.17;;
46889;SDS011;32625;51.080;16.970;2024-03-02T09:09:48;71.20;;;53.50;;
46889;SDS011;32625;51.080;16.970;2024-03-02T09:12:15;67.90;;;49.67;;
46889;SDS011;32625;51.080;16.970;2024-03-02T09:14:43;71.05;;;51.17;;
46889;SDS011;32625;51.080;16.970;2024-03-02T09:17:10;66.82;;;50.55;;
46889;SDS011;32625;51.080;16.970;2024-03-02T09:19:39;66.03;;;50.47;;
46889;SDS011;32625;51.080;16.970;2024-03-02T09:22:06;73.43;;;53.17;;
46889;SDS011;32625;51.080;16.970;2024-03-02T09:24:33;69.75;;;50.03;;
46889;SDS011;32625;51.080;16.970;2024-03-02T09:27:01;72.70;;;51.70;;
46889;SDS011;32625;51.080;16.970;2024-03-02T09:29:28;67.03;;;48.85;;
46889;SDS011;32625;51.080;16.970;2024-03-02T09:31:56;61.92;;;48.28;;
46889;SDS011;32625;51.080;16.970;2024-03-02T09:34:23;66.38;;;50.03;;
46889;SDS011;32625;51.080;16.970;2024-03-02T09:36:51;69.50;;;49.13;;
46889;SDS011;32625;51.080;16.970;2024-03-02T09:39:19;62.63;;;46.30;;
46889;SDS011;32625;51.080;16.970;2024-03-02T09:41:47;64.47;;;49.25;;
46889;SDS011;32625;51.080;16.970;2024-03-02T09:44:14;62.00;;;46.75;;
46889;SDS011;32625;51.080;16.970;2024-03-02T09:46:42;61.80;;;44.45;;
46889;SDS011;32625;51.080;16.970;2024-03-02T09:49:11;62.15;;;44.42;;
46889;SDS011;32625;51.080;16.970;2024-03-02T09:51:38;57.42;;;43.78;;
46889;SDS011;32625;51.080;16.970;2024-03-02T09:54:07;54.67;;;43.08;;
46889;SDS011;32625;51.080;16.970;2024-03-02T09:56:47;60.60;;;45.10;;
46889;SDS011;32625;51.080;16.970;2024-03-02T09:59:14;58.35;;;43.00;;
46889;SDS011;32625;51.080;16.970;2024-03-02T10:01:56;64.88;;;44.53;;
46889;SDS011;32625;51.080;16.970;2024-03-02T10:04:28;62.13;;;46.45;;
46889;SDS011;32625;51.080;16.970;2024-03-02T10:07:13;56.38;;;41.75;;
46889;SDS011;32625;51.080;16.970;2024-03-02T10:09:41;60.72;;;42.65;;
46889;SDS011;32625;51.080;16.970;2024-03-02T10:12:09;59.63;;;43.30;;
46889;SDS011;32625;51.080;16.970;2024-03-02T10:14:38;60.60;;;41.95;;
46889;SDS011;32625;51.080;16.970;2024-03-02T10:17:07;56.95;;;41.95;;
46889;SDS011;32625;51.080;16.970;2024-03-02T10:19:38;57.42;;;41.65;;
46889;SDS011;32625;51.080;16.970;2024-03-02T10:22:09;57.17;;;42.30;;
46889;SDS011;32625;51.080;16.970;2024-03-02T10:27:07;53.72;;;41.25;;
46889;SDS011;32625;51.080;16.970;2024-03-02T10:29:41;58.67;;;40.25;;
46889;SDS011;32625;51.080;16.970;2024-03-02T10:32:09;52.97;;;41.08;;
46889;SDS011;32625;51.080;16.970;2024-03-02T10:34:42;54.47;;;41.20;;
46889;SDS011;32625;51.080;16.970;2024-03-02T10:37:11;53.78;;;40.47;;
46889;SDS011;32625;51.080;16.970;2024-03-02T10:39:39;49.88;;;40.70;;
46889;SDS011;32625;51.080;16.970;2024-03-02T10:42:07;53.83;;;39.45;;
46889;SDS011;32625;51.080;16.970;2024-03-02T10:44:35;54.78;;;38.92;;
46889;SDS011;32625;51.080;16.970;2024-03-02T10:47:03;48.88;;;37.30;;
46889;SDS011;32625;51.080;16.970;2024-03-02T10:49:31;47.15;;;36.75;;
46889;SDS011;32625;51.080;16.970;2024-03-02T10:51:59;51.33;;;37.20;;
46889;SDS011;32625;51.080;16.970;2024-03-02T10:54:27;53.15;;;38.50;;
46889;SDS011;32625;51.080;16.970;2024-03-02T10:57:04;47.20;;;35.55;;
46889;SDS011;32625;51.080;16.970;2024-03-02T10:59:34;49.25;;;35.92;;
46889;SDS011;32625;51.080;16.970;2024-03-02T11:02:03;49.58;;;36.55;;
46889;SDS011;32625;51.080;16.970;2024-03-02T11:04:34;50.90;;;35.40;;
46889;SDS011;32625;51.080;16.970;2024-03-02T11:07:02;48.38;;;34.47;;
46889;SDS011;32625;51.080;16.970;2024-03-02T11:09:35;46.08;;;33.58;;
46889;SDS011;32625;51.080;16.970;2024-03-02T11:12:15;40.50;;;31.08;;
46889;SDS011;32625;51.080;16.970;2024-03-02T11:14:46;44.85;;;32.33;;
46889;SDS011;32625;51.080;16.970;2024-03-02T11:17:14;45.35;;;32.22;;
46889;SDS011;32625;51.080;16.970;2024-03-02T11:19:42;40.13;;;30.23;;
46889;SDS011;32625;51.080;16.970;2024-03-02T11:22:11;43.13;;;33.28;;
46889;SDS011;32625;51.080;16.970;2024-03-02T11:24:40;38.55;;;31.27;;
46889;SDS011;32625;51.080;16.970;2024-03-02T11:27:14;38.05;;;30.80;;
46889;SDS011;32625;51.080;16.970;2024-03-02T11:33:02;40.70;;;31.40;;
46889;SDS011;32625;51.080;16.970;2024-03-02T11:35:42;48.65;;;32.88;;
46889;SDS011;32625;51.080;16.970;2024-03-02T11:38:15;41.08;;;32.28;;
46889;SDS011;32625;51.080;16.970;2024-03-02T11:40:42;41.80;;;33.45;;
46889;SDS011;32625;51.080;16.970;2024-03-02T11:43:09;39.05;;;31.77;;
46889;SDS011;32625;51.080;16.970;2024-03-02T11:45:38;40.33;;;30.55;;
46889;SDS011;32625;51.080;16.970;2024-03-02T11:48:13;45.10;;;32.27;;
46889;SDS011;32625;51.080;16.970;2024-03-02T11:53:16;38.00;;;30.38;;
46889;SDS011;32625;51.080;16.970;2024-03-02T11:55:44;39.65;;;31.55;;
46889;SDS011;32625;51.080;16.970;2024-03-02T11:58:14;41.22;;;30.30;;
46889;SDS011;32625;51.080;16.970;2024-03-02T12:00:50;39.45;;;29.83;;
46889;SDS011;32625;51.080;16.970;2024-03-02T12:03:18;42.38;;;30.13;;
46889;SDS011;32625;51.080;16.970;2024-03-02T12:05:49;40.50;;;28.58;;
46889;SDS011;32625;51.080;16.970;2024-03-02T12:08:17;36.38;;;27.65;;
46889;SDS011;32625;51.080;16.970;2024-03-02T12:11:06;37.35;;;28.20;;
46889;SDS011;32625;51.080;16.970;2024-03-02T12:13:33;38.45;;;26.88;;
46889;SDS011;32625;51.080;16.970;2024-03-02T12:16:00;33.78;;;25.80;;
46889;SDS011;32625;51.080;16.970;2024-03-02T12:18:28;32.97;;;24.73;;
46889;SDS011;32625;51.080;16.970;2024-03-02T12:20:55;30.73;;;22.63;;
46889;SDS011;32625;51.080;16.970;2024-03-02T12:23:25;30.55;;;22.77;;
46889;SDS011;32625;51.080;16.970;2024-03-02T12:25:53;31.63;;;22.90;;
46889;SDS011;32625;51.080;16.970;2024-03-02T12:28:20;34.72;;;22.48;;
46889;SDS011;32625;51.080;16.970;2024-03-02T12:30:48;34.08;;;23.35;;
46889;SDS011;32625;51.080;16.970;2024-03-02T12:33:16;33.90;;;23.95;;
46889;SDS011;32625;51.080;16.970;2024-03-02T12:35:44;33.30;;;23.25;;
46889;SDS011;32625;51.080;16.970;2024-03-02T12:38:11;39.60;;;23.45;;
46889;SDS011;32625;51.080;16.970;2024-03-02T12:40:38;30.00;;;24.30;;
46889;SDS011;32625;51.080;16.970;2024-03-02T12:43:05;26.98;;;21.88;;
46889;SDS011;32625;51.080;16.970;2024-03-02T12:45:34;31.67;;;22.75;;
46889;SDS011;32625;51.080;16.970;2024-03-02T12:48:02;28.90;;;23.55;;
46889;SDS011;32625;51.080;16.970;2024-03-02T12:50:31;30.20;;;24.05;;
46889;SDS011;32625;51.080;16.970;2024-03-02T12:52:58;37.08;;;26.33;;
46889;SDS011;32625;51.080;16.970;2024-03-02T12:55:25;34.85;;;27.10;;
46889;SDS011;32625;51.080;16.970;2024-03-02T12:57:53;35.72;;;26.83;;
46889;SDS011;32625;51.080;16.970;2024-03-02T13:00:21;35.88;;;28.02;;
46889;SDS011;32625;51.080;16.970;2024-03-02T13:02:49;37.22;;;27.60;;
46889;SDS011;32625;51.080;16.970;2024-03-02T13:05:18;37.30;;;26.77;;
46889;SDS011;32625;51.080;16.970;2024-03-02T13:07:47;31.05;;;25.30;;
46889;SDS011;32625;51.080;16.970;2024-03-02T13:10:15;34.65;;;23.85;;
46889;SDS011;32625;51.080;16.970;2024-03-02T13:12:44;30.95;;;24.75;;
46889;SDS011;32625;51.080;16.970;2024-03-02T13:15:12;34.55;;;25.38;;
46889;SDS011;32625;51.080;16.970;2024-03-02T13:17:46;33.55;;;24.55;;
46889;SDS011;32625;51.080;16.970;2024-03-02T13:20:14;34.85;;;24.77;;
46889;SDS011;32625;51.080;16.970;2024-03-02T13:22:41;32.15;;;24.80;;
46889;SDS011;32625;51.080;16.970;2024-03-02T13:25:09;32.35;;;24.85;;
46889;SDS011;32625;51.080;16.970;2024-03-02T13:27:38;34.95;;;24.17;;
46889;SDS011;32625;51.080;16.970;2024-03-02T13:30:06;28.88;;;23.58;;
46889;SDS011;32625;51.080;16.970;2024-03-02T13:32:36;30.45;;;22.73;;
46889;SDS011;32625;51.080;16.970;2024-03-02T13:35:03;30.50;;;24.52;;
46889;SDS011;32625;51.080;16.970;2024-03-02T13:37:31;30.60;;;23.10;;
46889;SDS011;32625;51.080;16.970;2024-03-02T13:39:59;30.52;;;23.70;;
46889;SDS011;32625;51.080;16.970;2024-03-02T13:42:26;29.75;;;23.13;;
46889;SDS011;32625;51.080;16.970;2024-03-02T13:44:54;27.40;;;22.42;;
46889;SDS011;32625;51.080;16.970;2024-03-02T13:47:21;31.50;;;23.02;;
46889;SDS011;32625;51.080;16.970;2024-03-02T13:49:48;28.45;;;22.27;;
46889;SDS011;32625;51.080;16.970;2024-03-02T13:52:16;27.73;;;21.63;;
46889;SDS011;32625;51.080;16.970;2024-03-02T13:54:44;30.15;;;22.08;;
46889;SDS011;32625;51.080;16.970;2024-03-02T13:57:12;33.33;;;22.83;;
46889;SDS011;32625;51.080;16.970;2024-03-02T13:59:40;31.75;;;22.65;;
46889;SDS011;32625;51.080;16.970;2024-03-02T14:02:09;31.70;;;22.38;;
46889;SDS011;32625;51.080;16.970;2024-03-02T14:04:38;27.00;;;22.88;;
46889;SDS011;32625;51.080;16.970;2024-03-02T14:07:06;33.53;;;24.10;;
46889;SDS011;32625;51.080;16.970;2024-03-02T14:09:34;33.80;;;23.95;;
46889;SDS011;32625;51.080;16.970;2024-03-02T14:12:02;31.95;;;23.08;;
46889;SDS011;32625;51.080;16.970;2024-03-02T14:14:30;29.80;;;22.98;;
46889;SDS011;32625;51.080;16.970;2024-03-02T14:16:58;31.90;;;23.23;;
46889;SDS011;32625;51.080;16.970;2024-03-02T14:19:33;32.17;;;23.08;;
46889;SDS011;32625;51.080;16.970;2024-03-02T14:22:00;33.00;;;24.02;;
46889;SDS011;32625;51.080;16.970;2024-03-02T14:24:27;36.15;;;23.20;;
46889;SDS011;32625;51.080;16.970;2024-03-02T14:26:56;31.50;;;23.92;;
46889;SDS011;32625;51.080;16.970;2024-03-02T14:29:45;28.67;;;22.42;;